Time;durP1;ratioP1;P1;durP2;ratioP2;P2;SDS_P1;SDS_P2;PMS_P1;PMS_P2;Temp;Humidity;BMP_temperature;BMP_pressure;BME280_temperature;BME280_humidity;BME280_pressure;Samples;Min_cycle;Max_cycle;Signal;HPM_P1;HPM_P2
2022/10/19 00:00:00;;;;;;;;;;;;;;;;;;5084705;28;1546;-71
2022/10/19 00:02:26;;;;;;;;;;;;;;;;;;5072808;28;1063;-71
2022/10/19 00:04:52;;;;;;;;;;;;;;;;;;5070566;28;1171;-71
2022/10/19 00:07:20;;;;;;;;;;;;;;;;;;5071414;28;1466;-72
2022/10/19 00:09:46;;;;;;;;;;;;;;;;;;5076406;28;1404;-72
2022/10/19 00:12:12;;;;;;;;;;;;;;;;;;5092578;28;1063;-72
2022/10/19 00:14:38;;;;;;;;;;;;;;;;;;5091487;28;1973;-73
2022/10/19 00:17:05;;;;;;;;;;;;;;;;;;5092393;28;1286;-73
2022/10/19 00:19:31;;;;;;;;;;;;;;;;;;5092720;28;991;-73
2022/10/19 00:21:57;;;;;;;;;;;;;;;;;;5092314;28;1059;-73
2022/10/19 00:24:25;;;;;;;;;;;;;;;;;;5092646;28;854;-73
2022/10/19 00:26:51;;;;;;;;;;;;;;;;;;5092408;28;1274;-72
2022/10/19 00:29:18;;;;;;;;;;;;;;;;;;5091046;28;1484;-72
2022/10/19 00:31:44;;;;;;;;;;;;;;;;;;5090954;28;1470;-71
2022/10/19 00:34:11;;;;;;;;;;;;;;;;;;5091906;28;1973;-72
2022/10/19 00:36:38;;;;;;;;;;;;;;;;;;5090994;28;1372;-72
2022/10/19 00:39:05;;;;;;;;;;;;;;;;;;5091960;28;1439;-72
2022/10/19 00:41:33;;;;;;;;;;;;;;;;;;5090943;28;1335;-71
2022/10/19 00:44:00;;;;;;;;;;;;;;;;;;5092318;28;1111;-71
2022/10/19 00:46:27;;;;;;;;;;;;;;;;;;5092130;28;1357;-72
2022/10/19 00:48:54;;;;;;;;;;;;;;;;;;5090921;28;1318;-72
2022/10/19 00:51:20;;;;;;;;;;;;;;;;;;5090780;28;2253;-70
2022/10/19 00:53:47;;;;;;;;;;;;;;;;;;5091875;28;1972;-72
2022/10/19 00:56:13;;;;;;;;;;;;;;;;;;5091973;28;1377;-72
2022/10/19 00:58:41;;;;;;;;;;;;;;;;;;5091959;28;786;-72
2022/10/19 01:01:07;;;;;;;;;;;;;;;;;;5091926;28;1043;-72
2022/10/19 01:03:34;;;;;;;;;;;;;;;;;;5091743;28;830;-72
2022/10/19 01:06:00;;;;;;;;;;;;;;;;;;5091591;28;1288;-72
2022/10/19 01:08:26;;;;;;;;;;;;;;;;;;5091593;28;1436;-72
2022/10/19 01:10:53;;;;;;;;;;;;;;;;;;5092075;28;830;-71
2022/10/19 01:13:23;;;;;;;;;;;;;;;;;;5091354;28;983;-72
2022/10/19 01:15:53;;;;;;;;;;;;;;;;;;5091565;28;1914;-72
2022/10/19 01:18:19;;;;;;;;;;;;;;;;;;5091699;28;1103;-72
2022/10/19 01:20:51;;;;;;;;;;;;;;;;;;5091809;28;1043;-72
2022/10/19 01:23:22;;;;;;;;;;;;;;;;;;5091071;28;1063;-72
2022/10/19 01:25:50;;;;;;;;;;;;;;;;;;5090153;28;1386;-71
2022/10/19 01:28:18;;;;;;;;;;;;;;;;;;5090010;28;1344;-72
2022/10/19 01:30:47;;;;;;;;;;;;;;;;;;5091554;28;1122;-72
2022/10/19 01:33:16;;;;;;;;;;;;;;;;;;5091214;28;1059;-72
2022/10/19 01:35:44;;;;;;;;;;;;;;;;;;5091383;28;1918;-72
2022/10/19 01:38:13;;;;;;;;;;;;;;;;;;5091048;28;1518;-72
2022/10/19 01:40:41;;;;;;;;;;;;;;;;;;5090123;28;1111;-72
2022/10/19 01:43:09;;;;;;;;;;;;;;;;;;5091132;28;992;-72
2022/10/19 01:45:36;;;;;;;;;;;;;;;;;;5091564;28;1122;-72
2022/10/19 01:48:04;;;;;;;;;;;;;;;;;;5091259;28;1024;-72
2022/10/19 01:50:31;;;;;;;;;;;;;;;;;;5091350;28;984;-71
2022/10/19 01:52:58;;;;;;;;;;;;;;;;;;5090835;28;1122;-72
2022/10/19 01:55:24;;;;;;;;;;;;;;;;;;5089994;28;1981;-72
2022/10/19 01:57:52;;;;;;;;;;;;;;;;;;5083761;28;1550;-72
2022/10/19 02:00:18;;;;;;;;;;;;;;;;;;5070988;28;987;-72
2022/10/19 02:02:45;;;;;;;;;;;;;;;;;;5070954;28;1041;-70
2022/10/19 02:05:12;;;;;;;;;;;;;;;;;;5069474;28;1197;-72
2022/10/19 02:07:40;;;;;;;;;;;;;;;;;;5075325;28;1495;-72
2022/10/19 02:10:06;;;;;;;;;;;;;;;;;;5091096;28;941;-71
2022/10/19 02:12:32;;;;;;;;;;;;;;;;;;5090988;28;1378;-71
2022/10/19 02:14:59;;;;;;;;;;;;;;;;;;5090742;28;1910;-72
2022/10/19 02:17:26;;;;;;;;;;;;;;;;;;5089760;28;1374;-72
2022/10/19 02:19:53;;;;;;;;;;;;;;;;;;5091261;28;936;-71
2022/10/19 02:22:20;;;;;;;;;;;;;;;;;;5089461;28;1123;-72
2022/10/19 02:24:46;;;;;;;;;;;;;;;;;;5090972;28;714;-72
2022/10/19 02:27:13;;;;;;;;;;;;;;;;;;5102862;22;4271;-72
2022/10/19 02:29:39;;;;;;;;;;;;;;;;;;5093322;28;1266;-74
2022/10/19 02:32:07;;;;;;;;;;;;;;;;;;5093135;28;1433;-74
2022/10/19 02:34:33;;;;;;;;;;;;;;;;;;5093246;28;1926;-75
2022/10/19 02:36:59;;;;;;;;;;;;;;;;;;5094475;28;1474;-75
2022/10/19 02:39:26;;;;;;;;;;;;;;;;;;5094598;28;1051;-74
2022/10/19 02:41:54;;;;;;;;;;;;;;;;;;5094454;28;948;-74
2022/10/19 02:44:20;;;;;;;;;;;;;;;;;;5094544;28;924;-74
2022/10/19 02:46:48;;;;;;;;;;;;;;;;;;5094529;28;1264;-73
2022/10/19 02:49:14;;;;;;;;;;;;;;;;;;5093270;28;1262;-74
2022/10/19 02:51:46;;;;;;;;;;;;;;;;;;5094297;28;857;-74
2022/10/19 02:54:13;;;;;;;;;;;;;;;;;;5092680;28;2005;-73
2022/10/19 02:56:40;;;;;;;;;;;;;;;;;;5094536;28;1063;-74
2022/10/19 02:59:06;;;;;;;;;;;;;;;;;;5094499;28;1361;-75
2022/10/19 03:01:33;;;;;;;;;;;;;;;;;;5092920;28;1212;-74
2022/10/19 03:03:59;;;;;;;;;;;;;;;;;;5093130;28;1288;-74
2022/10/19 03:06:25;;;;;;;;;;;;;;;;;;5094187;28;877;-74
2022/10/19 03:08:51;;;;;;;;;;;;;;;;;;5093840;28;1473;-75
2022/10/19 03:11:17;;;;;;;;;;;;;;;;;;5093772;28;778;-73
2022/10/19 03:13:45;;;;;;;;;;;;;;;;;;5092690;28;1328;-74
2022/10/19 03:16:11;;;;;;;;;;;;;;;;;;5093874;28;1984;-74
2022/10/19 03:18:38;;;;;;;;;;;;;;;;;;5093879;28;1383;-74
2022/10/19 03:21:05;;;;;;;;;;;;;;;;;;5092583;28;1202;-74
2022/10/19 03:23:31;;;;;;;;;;;;;;;;;;5092068;28;1225;-74
2022/10/19 03:25:57;;;;;;;;;;;;;;;;;;5092597;28;1251;-74
2022/10/19 03:28:24;;;;;;;;;;;;;;;;;;5093306;28;1332;-74
2022/10/19 03:30:51;;;;;;;;;;;;;;;;;;5092494;28;1119;-74
2022/10/19 03:33:17;;;;;;;;;;;;;;;;;;5092066;28;1453;-74
2022/10/19 03:35:44;;;;;;;;;;;;;;;;;;5093465;28;1914;-74
2022/10/19 03:38:10;;;;;;;;;;;;;;;;;;5091428;28;1523;-74
2022/10/19 03:40:36;;;;;;;;;;;;;;;;;;5092904;28;861;-74
2022/10/19 03:43:02;;;;;;;;;;;;;;;;;;5093306;28;1075;-73
2022/10/19 03:45:28;;;;;;;;;;;;;;;;;;5093536;28;1059;-74
2022/10/19 03:47:56;;;;;;;;;;;;;;;;;;5093381;28;1300;-74
2022/10/19 03:50:22;;;;;;;;;;;;;;;;;;5093571;28;1126;-74
2022/10/19 03:52:49;;;;;;;;;;;;;;;;;;5093197;28;936;-73
2022/10/19 03:55:15;;;;;;;;;;;;;;;;;;5091895;28;1909;-74
2022/10/19 03:57:41;;;;;;;;;;;;;;;;;;5075904;28;1510;-74
2022/10/19 04:00:08;;;;;;;;;;;;;;;;;;5052509;28;1060;-74
2022/10/19 04:02:40;;;;;;;;;;;;;;;;;;5052774;28;790;-74
2022/10/19 04:05:08;;;;;;;;;;;;;;;;;;5064290;28;1559;-74
2022/10/19 04:07:34;;;;;;;;;;;;;;;;;;5077684;28;1395;-74
2022/10/19 04:10:00;;;;;;;;;;;;;;;;;;5080072;28;1389;-74
2022/10/19 04:12:27;;;;;;;;;;;;;;;;;;5077700;28;1131;-73
2022/10/19 04:14:53;;;;;;;;;;;;;;;;;;5070958;28;1910;-73
2022/10/19 04:17:19;;;;;;;;;;;;;;;;;;5068456;28;1485;-72
2022/10/19 04:19:45;;;;;;;;;;;;;;;;;;5079534;28;1094;-73
2022/10/19 04:22:13;;;;;;;;;;;;;;;;;;5074916;28;1461;-73
2022/10/19 04:24:39;;;;;;;;;;;;;;;;;;5075288;28;1406;-74
2022/10/19 04:27:05;;;;;;;;;;;;;;;;;;5083790;28;1390;-73
2022/10/19 04:29:31;;;;;;;;;;;;;;;;;;5073459;28;1411;-73
2022/10/19 04:31:58;;;;;;;;;;;;;;;;;;5077725;28;1393;-73
2022/10/19 04:34:24;;;;;;;;;;;;;;;;;;5077549;28;1437;-72
2022/10/19 04:36:50;;;;;;;;;;;;;;;;;;5080715;28;1980;-74
2022/10/19 04:39:18;;;;;;;;;;;;;;;;;;5082260;28;1350;-73
2022/10/19 04:41:44;;;;;;;;;;;;;;;;;;5087070;28;1133;-73
2022/10/19 04:44:10;;;;;;;;;;;;;;;;;;5092242;28;1051;-73
2022/10/19 04:46:37;;;;;;;;;;;;;;;;;;5091636;28;1119;-74
2022/10/19 04:49:05;;;;;;;;;;;;;;;;;;5092365;28;1360;-73
2022/10/19 04:51:31;;;;;;;;;;;;;;;;;;5092436;28;742;-73
2022/10/19 04:53:57;;;;;;;;;;;;;;;;;;5091876;28;1268;-73
2022/10/19 04:56:25;;;;;;;;;;;;;;;;;;5093141;28;1965;-73
2022/10/19 04:58:53;;;;;;;;;;;;;;;;;;5093198;28;1304;-74
2022/10/19 05:01:20;;;;;;;;;;;;;;;;;;5092717;28;1118;-73
2022/10/19 05:03:46;;;;;;;;;;;;;;;;;;5093203;28;1118;-73
2022/10/19 05:06:12;;;;;;;;;;;;;;;;;;5091736;28;1482;-73
2022/10/19 05:08:39;;;;;;;;;;;;;;;;;;5091959;28;1419;-73
2022/10/19 05:11:05;;;;;;;;;;;;;;;;;;5091768;28;961;-73
2022/10/19 05:13:33;;;;;;;;;;;;;;;;;;5091303;28;783;-73
2022/10/19 05:16:00;;;;;;;;;;;;;;;;;;5090399;28;1926;-73
2022/10/19 05:18:26;;;;;;;;;;;;;;;;;;5090223;28;1426;-74
2022/10/19 05:20:59;;;;;;;;;;;;;;;;;;5091703;28;973;-74
2022/10/19 05:23:25;;;;;;;;;;;;;;;;;;5079401;28;1529;-73
2022/10/19 05:25:58;;;;;;;;;;;;;;;;;;5082979;28;1169;-73
2022/10/19 05:28:24;;;;;;;;;;;;;;;;;;5081455;28;1400;-73
2022/10/19 05:30:52;;;;;;;;;;;;;;;;;;5052023;28;1409;-73
2022/10/19 05:33:18;;;;;;;;;;;;;;;;;;5077190;28;1334;-73
2022/10/19 05:35:44;;;;;;;;;;;;;;;;;;5077940;28;1906;-73
2022/10/19 05:38:10;;;;;;;;;;;;;;;;;;5069575;28;1426;-73
2022/10/19 05:40:36;;;;;;;;;;;;;;;;;;5073645;28;1377;-73
2022/10/19 05:43:03;;;;;;;;;;;;;;;;;;5080013;28;1581;-73
2022/10/19 05:45:29;;;;;;;;;;;;;;;;;;5082286;28;1134;-74
2022/10/19 05:47:56;;;;;;;;;;;;;;;;;;5091597;28;1337;-73
2022/10/19 05:50:22;;;;;;;;;;;;;;;;;;5090705;28;838;-73
2022/10/19 05:52:49;;;;;;;;;;;;;;;;;;5090557;28;1055;-73
2022/10/19 05:55:15;;;;;;;;;;;;;;;;;;5076771;28;1969;-73
2022/10/19 05:57:41;;;;;;;;;;;;;;;;;;5081924;28;1327;-73
2022/10/19 06:00:08;;;;;;;;;;;;;;;;;;5074535;28;1426;-72
2022/10/19 06:02:38;;;;;;;;;;;;;;;;;;5092142;28;1100;-72
2022/10/19 06:05:06;;;;;;;;;;;;;;;;;;5092194;28;1366;-72
2022/10/19 06:07:32;;;;;;;;;;;;;;;;;;5084005;28;1436;-73
2022/10/19 06:09:58;;;;;;;;;;;;;;;;;;5092000;28;1181;-73
2022/10/19 06:12:24;;;;;;;;;;;;;;;;;;5094536;28;984;-73
2022/10/19 06:14:50;;;;;;;;;;;;;;;;;;5094952;28;1059;-72
2022/10/19 06:17:17;;;;;;;;;;;;;;;;;;5092981;28;1914;-73
2022/10/19 06:19:43;;;;;;;;;;;;;;;;;;5069983;28;1471;-73
2022/10/19 06:22:10;;;;;;;;;;;;;;;;;;5081444;28;1237;-74
2022/10/19 06:24:37;;;;;;;;;;;;;;;;;;5092842;28;1103;-74
2022/10/19 06:27:05;;;;;;;;;;;;;;;;;;5088742;28;1387;-73
2022/10/19 06:29:31;;;;;;;;;;;;;;;;;;5085014;28;1419;-73
2022/10/19 06:31:59;;;;;;;;;;;;;;;;;;5069203;28;1105;-73
2022/10/19 06:34:25;;;;;;;;;;;;;;;;;;5071310;28;957;-73
2022/10/19 06:36:51;;;;;;;;;;;;;;;;;;5080294;28;1977;-73
2022/10/19 06:39:19;;;;;;;;;;;;;;;;;;5080935;28;1304;-73
2022/10/19 06:41:45;;;;;;;;;;;;;;;;;;5069766;28;1095;-73
2022/10/19 06:44:17;;;;;;;;;;;;;;;;;;5068690;28;964;-73
2022/10/19 06:46:43;;;;;;;;;;;;;;;;;;5068884;28;1056;-73
2022/10/19 06:49:11;;;;;;;;;;;;;;;;;;5064533;28;1479;-73
2022/10/19 06:51:37;;;;;;;;;;;;;;;;;;5076237;28;1565;-73
2022/10/19 06:54:03;;;;;;;;;;;;;;;;;;5078591;28;1151;-73
2022/10/19 06:56:31;;;;;;;;;;;;;;;;;;5070422;28;1913;-70
2022/10/19 06:58:57;;;;;;;;;;;;;;;;;;5079732;28;1462;-72
2022/10/19 07:01:24;;;;;;;;;;;;;;;;;;5074090;28;1381;-72
2022/10/19 07:03:50;;;;;;;;;;;;;;;;;;5079199;28;1168;-73
2022/10/19 07:06:17;;;;;;;;;;;;;;;;;;5085839;28;1478;-73
2022/10/19 07:08:43;;;;;;;;;;;;;;;;;;5074980;28;1487;-72
2022/10/19 07:11:10;;;;;;;;;;;;;;;;;;5074759;28;1166;-72
2022/10/19 07:13:38;;;;;;;;;;;;;;;;;;5071843;28;771;-73
2022/10/19 07:16:05;;;;;;;;;;;;;;;;;;5074536;28;1918;-74
2022/10/19 07:18:32;;;;;;;;;;;;;;;;;;5077230;28;1594;-73
2022/10/19 07:20:59;;;;;;;;;;;;;;;;;;5080411;28;1230;-72
2022/10/19 07:23:26;;;;;;;;;;;;;;;;;;5072885;28;1257;-73
2022/10/19 07:25:53;;;;;;;;;;;;;;;;;;5074720;28;1091;-74
2022/10/19 07:28:19;;;;;;;;;;;;;;;;;;5074589;28;1459;-74
2022/10/19 07:30:46;;;;;;;;;;;;;;;;;;5075055;28;1068;-74
2022/10/19 07:33:13;;;;;;;;;;;;;;;;;;5060311;28;843;-74
2022/10/19 07:35:39;;;;;;;;;;;;;;;;;;5060637;28;1922;-75
2022/10/19 07:38:05;;;;;;;;;;;;;;;;;;5081110;28;1388;-75
2022/10/19 07:40:31;;;;;;;;;;;;;;;;;;5076961;28;1419;-74
2022/10/19 07:42:58;;;;;;;;;;;;;;;;;;5080967;28;1370;-74
2022/10/19 07:45:24;;;;;;;;;;;;;;;;;;5075569;28;1411;-74
2022/10/19 07:47:51;;;;;;;;;;;;;;;;;;5085339;28;1321;-74
2022/10/19 07:50:18;;;;;;;;;;;;;;;;;;5086443;28;1427;-74
2022/10/19 07:52:44;;;;;;;;;;;;;;;;;;5087170;28;1237;-74
2022/10/19 07:55:10;;;;;;;;;;;;;;;;;;5094282;28;1139;-74
2022/10/19 07:57:36;;;;;;;;;;;;;;;;;;5074308;28;1974;-74
2022/10/19 08:00:03;;;;;;;;;;;;;;;;;;5080798;28;1186;-75
2022/10/19 08:02:38;;;;;;;;;;;;;;;;;;5057826;28;1456;-75
2022/10/19 08:05:06;;;;;;;;;;;;;;;;;;5071759;28;1296;-75
2022/10/19 08:07:32;;;;;;;;;;;;;;;;;;5077638;28;1404;-75
2022/10/19 08:09:58;;;;;;;;;;;;;;;;;;5073528;28;1456;-74
2022/10/19 08:12:25;;;;;;;;;;;;;;;;;;5084366;28;1194;-76
2022/10/19 08:14:52;;;;;;;;;;;;;;;;;;5093743;28;1055;-76
2022/10/19 08:17:18;;;;;;;;;;;;;;;;;;5093635;28;1901;-75
2022/10/19 08:19:45;;;;;;;;;;;;;;;;;;5086595;28;1404;-75
2022/10/19 08:22:12;;;;;;;;;;;;;;;;;;5082364;28;1233;-75
2022/10/19 08:24:39;;;;;;;;;;;;;;;;;;5092168;28;1106;-75
2022/10/19 08:27:05;;;;;;;;;;;;;;;;;;5093389;28;1396;-74
2022/10/19 08:29:31;;;;;;;;;;;;;;;;;;5093342;28;1078;-75
2022/10/19 08:31:57;;;;;;;;;;;;;;;;;;5079109;28;1602;-75
2022/10/19 08:34:24;;;;;;;;;;;;;;;;;;5075259;28;1553;-75
2022/10/19 08:36:50;;;;;;;;;;;;;;;;;;5093283;28;1969;-75
2022/10/19 08:39:17;;;;;;;;;;;;;;;;;;5092340;28;1165;-74
2022/10/19 08:41:51;;;;;;;;;;;;;;;;;;5084720;28;1474;-74
2022/10/19 08:44:23;;;;;;;;;;;;;;;;;;5074717;28;1437;-75
2022/10/19 08:46:51;;;;;;;;;;;;;;;;;;5075632;28;1405;-74
2022/10/19 08:49:18;;;;;;;;;;;;;;;;;;5082640;28;1444;-74
2022/10/19 08:51:44;;;;;;;;;;;;;;;;;;5074461;28;1401;-75
2022/10/19 08:54:13;;;;;;;;;;;;;;;;;;5081916;28;1217;-74
2022/10/19 08:56:42;;;;;;;;;;;;;;;;;;5093260;28;1902;-75
2022/10/19 08:59:11;;;;;;;;;;;;;;;;;;5091736;28;1387;-75
2022/10/19 09:01:39;;;;;;;;;;;;;;;;;;5074902;28;1558;-75
2022/10/19 09:04:06;;;;;;;;;;;;;;;;;;5077147;28;1383;-76
2022/10/19 09:06:34;;;;;;;;;;;;;;;;;;5092647;28;1055;-76
2022/10/19 09:09:01;;;;;;;;;;;;;;;;;;5091827;28;1394;-75
2022/10/19 09:11:27;;;;;;;;;;;;;;;;;;5084938;28;1477;-75
2022/10/19 09:13:58;;;;;;;;;;;;;;;;;;5083582;28;1213;-75
2022/10/19 09:16:24;;;;;;;;;;;;;;;;;;5079079;28;1988;-74
2022/10/19 09:18:50;;;;;;;;;;;;;;;;;;5060868;28;1995;-75
2022/10/19 09:21:18;;;;;;;;;;;;;;;;;;5070278;28;1214;-74
2022/10/19 09:23:45;;;;;;;;;;;;;;;;;;5072222;28;1404;-75
2022/10/19 09:26:13;;;;;;;;;;;;;;;;;;5071358;28;1216;-75
2022/10/19 09:28:42;;;;;;;;;;;;;;;;;;5070710;28;1403;-75
2022/10/19 09:31:12;;;;;;;;;;;;;;;;;;5072429;28;1063;-75
2022/10/19 09:33:38;;;;;;;;;;;;;;;;;;5071063;28;1466;-74
2022/10/19 09:36:05;;;;;;;;;;;;;;;;;;5072209;28;1434;-74
2022/10/19 09:38:31;;;;;;;;;;;;;;;;;;5076472;28;1913;-75
2022/10/19 09:40:57;;;;;;;;;;;;;;;;;;5082489;28;1685;-74
2022/10/19 09:43:24;;;;;;;;;;;;;;;;;;5070790;28;1051;-75
2022/10/19 09:45:50;;;;;;;;;;;;;;;;;;5070604;28;1198;-75
2022/10/19 09:48:20;;;;;;;;;;;;;;;;;;5069588;28;1394;-75
2022/10/19 09:50:49;;;;;;;;;;;;;;;;;;5070839;28;1390;-73
2022/10/19 09:53:17;;;;;;;;;;;;;;;;;;5072263;28;1370;-75
2022/10/19 09:55:44;;;;;;;;;;;;;;;;;;5075532;28;1055;-74
2022/10/19 09:58:15;;;;;;;;;;;;;;;;;;5069295;28;1983;-74
2022/10/19 10:00:42;;;;;;;;;;;;;;;;;;5066941;28;1319;-73
2022/10/19 10:03:11;;;;;;;;;;;;;;;;;;5069471;28;807;-74
2022/10/19 10:05:39;;;;;;;;;;;;;;;;;;5088045;28;1424;-74
2022/10/19 10:08:11;;;;;;;;;;;;;;;;;;5058947;28;1527;-74
2022/10/19 10:10:38;;;;;;;;;;;;;;;;;;5049102;28;918;-74
2022/10/19 10:13:04;;;;;;;;;;;;;;;;;;5050313;28;1107;-73
2022/10/19 10:15:43;;;;;;;;;;;;;;;;;;5050197;28;829;-74
2022/10/19 10:18:11;;;;;;;;;;;;;;;;;;5049614;28;1914;-74
2022/10/19 10:20:39;;;;;;;;;;;;;;;;;;5049384;28;1119;-74
2022/10/19 10:23:05;;;;;;;;;;;;;;;;;;5050640;28;1064;-74
2022/10/19 10:25:32;;;;;;;;;;;;;;;;;;5047987;28;1403;-74
2022/10/19 10:28:00;;;;;;;;;;;;;;;;;;5045508;28;1330;-72
2022/10/19 10:30:26;;;;;;;;;;;;;;;;;;5049620;28;1063;-74
2022/10/19 10:32:53;;;;;;;;;;;;;;;;;;5048199;28;1564;-75
2022/10/19 10:35:21;;;;;;;;;;;;;;;;;;5078608;28;1407;-74
2022/10/19 10:37:48;;;;;;;;;;;;;;;;;;5079267;28;1965;-74
2022/10/19 10:40:17;;;;;;;;;;;;;;;;;;5087684;28;1154;-74
2022/10/19 10:42:44;;;;;;;;;;;;;;;;;;5091713;28;793;-72
2022/10/19 10:45:15;;;;;;;;;;;;;;;;;;5081619;28;1414;-75
2022/10/19 10:47:47;;;;;;;;;;;;;;;;;;5074956;28;1305;-74
2022/10/19 10:50:15;;;;;;;;;;;;;;;;;;5075345;28;894;-75
2022/10/19 10:52:42;;;;;;;;;;;;;;;;;;5075085;28;1104;-75
2022/10/19 10:55:17;;;;;;;;;;;;;;;;;;5073302;28;1465;-75
2022/10/19 10:57:44;;;;;;;;;;;;;;;;;;5082148;28;1913;-74
2022/10/19 11:00:12;;;;;;;;;;;;;;;;;;5095446;28;1051;-73
2022/10/19 11:02:40;;;;;;;;;;;;;;;;;;5093888;28;1072;-75
2022/10/19 11:05:08;;;;;;;;;;;;;;;;;;5072968;28;1506;-75
2022/10/19 11:07:34;;;;;;;;;;;;;;;;;;5080188;28;1289;-74
2022/10/19 11:10:05;;;;;;;;;;;;;;;;;;5071207;28;1582;-78
2022/10/19 11:12:33;;;;;;;;;;;;;;;;;;5076416;28;1744;-75
2022/10/19 11:15:01;;;;;;;;;;;;;;;;;;5076016;28;1421;-75
2022/10/19 11:17:28;;;;;;;;;;;;;;;;;;5083460;28;1910;-76
2022/10/19 11:19:54;;;;;;;;;;;;;;;;;;5086072;28;1391;-74
2022/10/19 11:22:22;;;;;;;;;;;;;;;;;;5078761;28;1581;-75
2022/10/19 11:24:52;;;;;;;;;;;;;;;;;;5053910;28;1040;-74
2022/10/19 11:27:21;;;;;;;;;;;;;;;;;;5069215;28;1428;-75
2022/10/19 11:29:55;;;;;;;;;;;;;;;;;;5085342;28;1224;-74
2022/10/19 11:32:23;;;;;;;;;;;;;;;;;;5091840;28;1134;-72
2022/10/19 11:34:53;;;;;;;;;;;;;;;;;;5087416;28;1410;-73
2022/10/19 11:37:21;;;;;;;;;;;;;;;;;;5073601;28;1985;-75
2022/10/19 11:39:50;;;;;;;;;;;;;;;;;;5082998;28;1184;-74
2022/10/19 11:42:18;;;;;;;;;;;;;;;;;;5093516;28;1111;-74
2022/10/19 11:44:50;;;;;;;;;;;;;;;;;;5094184;28;1056;-74
2022/10/19 11:47:28;;;;;;;;;;;;;;;;;;5088148;28;1434;-74
2022/10/19 11:49:57;;;;;;;;;;;;;;;;;;5081547;28;1397;-74
2022/10/19 11:52:25;;;;;;;;;;;;;;;;;;5078812;28;1118;-76
2022/10/19 11:54:55;;;;;;;;;;;;;;;;;;5092415;28;980;-74
2022/10/19 11:57:23;;;;;;;;;;;;;;;;;;5094094;28;1914;-76
2022/10/19 11:59:55;;;;;;;;;;;;;;;;;;5091782;28;1095;-75
2022/10/19 12:02:27;;;;;;;;;;;;;;;;;;5094713;28;1031;-76
2022/10/19 12:04:54;;;;;;;;;;;;;;;;;;5080573;28;1253;-75
2022/10/19 12:07:25;;;;;;;;;;;;;;;;;;5053980;28;1373;-76
2022/10/19 12:09:52;;;;;;;;;;;;;;;;;;5055980;28;1585;-75
2022/10/19 12:12:23;;;;;;;;;;;;;;;;;;5070750;28;1728;-75
2022/10/19 12:14:50;;;;;;;;;;;;;;;;;;5074566;28;1562;-76
2022/10/19 12:17:18;;;;;;;;;;;;;;;;;;5076637;28;1983;-75
2022/10/19 12:19:46;;;;;;;;;;;;;;;;;;5064710;28;1410;-75
2022/10/19 12:22:14;;;;;;;;;;;;;;;;;;5091073;28;1224;-76
2022/10/19 12:24:41;;;;;;;;;;;;;;;;;;5077771;28;1465;-76
2022/10/19 12:27:09;;;;;;;;;;;;;;;;;;5080883;28;1558;-75
2022/10/19 12:29:36;;;;;;;;;;;;;;;;;;5086021;28;992;-75
2022/10/19 12:32:02;;;;;;;;;;;;;;;;;;5092259;28;1008;-76
2022/10/19 12:34:31;;;;;;;;;;;;;;;;;;5074299;28;1518;-76
2022/10/19 12:36:58;;;;;;;;;;;;;;;;;;5069901;28;1475;-76
2022/10/19 12:39:26;;;;;;;;;;;;;;;;;;5071157;28;1981;-76
2022/10/19 12:41:54;;;;;;;;;;;;;;;;;;5068305;28;1450;-74
2022/10/19 12:44:23;;;;;;;;;;;;;;;;;;5073150;28;1671;-76
2022/10/19 12:46:50;;;;;;;;;;;;;;;;;;5081051;28;1304;-75
2022/10/19 12:49:43;;;;;;;;;;;;;;;;;;5071465;28;908;-76
2022/10/19 12:52:10;;;;;;;;;;;;;;;;;;5023156;28;1084;-75
2022/10/19 12:54:37;;;;;;;;;;;;;;;;;;5072505;28;766;-76
2022/10/19 12:57:04;;;;;;;;;;;;;;;;;;5070447;28;1537;-72
2022/10/19 12:59:31;;;;;;;;;;;;;;;;;;5082360;28;1917;-76
2022/10/19 13:01:58;;;;;;;;;;;;;;;;;;5087339;28;1133;-75
2022/10/19 13:04:25;;;;;;;;;;;;;;;;;;5089402;28;1463;-76
2022/10/19 13:06:51;;;;;;;;;;;;;;;;;;5075361;28;1428;-75
2022/10/19 13:09:21;;;;;;;;;;;;;;;;;;5074349;28;1245;-76
2022/10/19 13:12:06;;;;;;;;;;;;;;;;;;5071051;28;1163;-76
2022/10/19 13:14:43;;;;;;;;;;;;;;;;;;5076314;28;1431;-76
2022/10/19 13:17:10;;;;;;;;;;;;;;;;;;5084465;28;1309;-75
2022/10/19 13:19:36;;;;;;;;;;;;;;;;;;5072944;28;1981;-75
2022/10/19 13:22:23;;;;;;;;;;;;;;;;;;5072397;28;874;-75
2022/10/19 13:25:08;;;;;;;;;;;;;;;;;;5072463;28;933;-76
2022/10/19 13:27:36;;;;;;;;;;;;;;;;;;5071164;28;1378;-74
2022/10/19 13:30:04;;;;;;;;;;;;;;;;;;5069030;28;1447;-74
2022/10/19 13:32:31;;;;;;;;;;;;;;;;;;5077274;28;1205;-76
2022/10/19 13:35:12;;;;;;;;;;;;;;;;;;5079384;28;1434;-74
2022/10/19 13:37:39;;;;;;;;;;;;;;;;;;5081072;28;1923;-76
2022/10/19 13:40:08;;;;;;;;;;;;;;;;;;5092636;28;1091;-75
2022/10/19 13:42:35;;;;;;;;;;;;;;;;;;5092514;28;1320;-75
2022/10/19 13:45:01;;;;;;;;;;;;;;;;;;5092661;28;1021;-75
2022/10/19 13:47:31;;;;;;;;;;;;;;;;;;5084356;28;1408;-75
2022/10/19 13:50:12;;;;;;;;;;;;;;;;;;5089008;28;1158;-73
2022/10/19 13:52:52;;;;;;;;;;;;;;;;;;5076843;28;1104;-75
2022/10/19 13:55:24;;;;;;;;;;;;;;;;;;5090743;28;1357;-75
2022/10/19 13:57:54;;;;;;;;;;;;;;;;;;5084547;28;1918;-76
2022/10/19 14:00:21;;;;;;;;;;;;;;;;;;5087501;28;1406;-75
2022/10/19 14:02:57;;;;;;;;;;;;;;;;;;5087757;28;2095;-73
2022/10/19 14:05:26;;;;;;;;;;;;;;;;;;5060994;28;1381;-75
2022/10/19 14:07:55;;;;;;;;;;;;;;;;;;5079646;28;1388;-76
2022/10/19 14:10:21;;;;;;;;;;;;;;;;;;5052135;28;1115;-75
2022/10/19 14:12:47;;;;;;;;;;;;;;;;;;5051377;28;1560;-74
2022/10/19 14:15:21;;;;;;;;;;;;;;;;;;5075973;28;1469;-75
2022/10/19 14:17:47;;;;;;;;;;;;;;;;;;5064741;28;1914;-76
2022/10/19 14:20:26;;;;;;;;;;;;;;;;;;5087990;28;1252;-75
2022/10/19 14:22:52;;;;;;;;;;;;;;;;;;5057256;28;1079;-73
2022/10/19 14:25:20;;;;;;;;;;;;;;;;;;5075765;28;821;-74
2022/10/19 14:27:46;;;;;;;;;;;;;;;;;;5075476;28;1390;-74
2022/10/19 14:30:20;;;;;;;;;;;;;;;;;;5075955;28;1059;-76
2022/10/19 14:32:46;;;;;;;;;;;;;;;;;;5084611;28;1396;-76
2022/10/19 14:35:17;;;;;;;;;;;;;;;;;;5072982;28;1119;-75
2022/10/19 14:37:44;;;;;;;;;;;;;;;;;;5080074;28;1442;-73
2022/10/19 14:40:22;;;;;;;;;;;;;;;;;;5087275;28;1917;-75
2022/10/19 14:42:48;;;;;;;;;;;;;;;;;;5093481;28;1398;-75
2022/10/19 14:45:16;;;;;;;;;;;;;;;;;;5081399;28;1437;-74
2022/10/19 14:47:52;;;;;;;;;;;;;;;;;;5090258;28;1305;-74
2022/10/19 14:50:19;;;;;;;;;;;;;;;;;;5095783;28;940;-74
2022/10/19 14:52:49;;;;;;;;;;;;;;;;;;5095336;28;936;-73
2022/10/19 14:55:16;;;;;;;;;;;;;;;;;;5084321;28;1419;-74
2022/10/19 14:57:42;;;;;;;;;;;;;;;;;;5075745;28;1647;-74
2022/10/19 15:00:14;;;;;;;;;;;;;;;;;;5075489;28;1982;-74
2022/10/19 15:02:43;;;;;;;;;;;;;;;;;;5093452;28;1133;-74
2022/10/19 15:05:14;;;;;;;;;;;;;;;;;;5095252;28;838;-74
2022/10/19 15:07:41;;;;;;;;;;;;;;;;;;5095270;28;1317;-74
2022/10/19 15:10:14;;;;;;;;;;;;;;;;;;5077082;28;1466;-75
2022/10/19 15:12:41;;;;;;;;;;;;;;;;;;5076903;28;1477;-73
2022/10/19 15:15:08;;;;;;;;;;;;;;;;;;5073411;28;1512;-76
2022/10/19 15:17:36;;;;;;;;;;;;;;;;;;5063027;28;1951;-76
2022/10/19 15:20:03;;;;;;;;;;;;;;;;;;5065059;28;1918;-74
2022/10/19 15:22:37;;;;;;;;;;;;;;;;;;5071548;28;1136;-74
2022/10/19 15:25:21;;;;;;;;;;;;;;;;;;5071631;28;1400;-75
2022/10/19 15:27:49;;;;;;;;;;;;;;;;;;5075646;28;1473;-75
2022/10/19 15:30:22;;;;;;;;;;;;;;;;;;5085549;28;1408;-74
2022/10/19 15:32:49;;;;;;;;;;;;;;;;;;5087445;28;1399;-74
2022/10/19 15:35:17;;;;;;;;;;;;;;;;;;5074487;28;996;-73
2022/10/19 15:37:44;;;;;;;;;;;;;;;;;;5074521;28;1363;-74
2022/10/19 15:40:11;;;;;;;;;;;;;;;;;;5071682;28;1894;-73
2022/10/19 15:42:39;;;;;;;;;;;;;;;;;;5076464;28;1432;-74
2022/10/19 15:45:20;;;;;;;;;;;;;;;;;;5081043;28;1217;-73
2022/10/19 15:47:48;;;;;;;;;;;;;;;;;;5075302;28;1489;-73
2022/10/19 15:50:29;;;;;;;;;;;;;;;;;;5075118;28;1181;-73
2022/10/19 15:52:55;;;;;;;;;;;;;;;;;;5072521;28;1407;-73
2022/10/19 15:55:21;;;;;;;;;;;;;;;;;;5085011;28;1493;-73
2022/10/19 15:57:49;;;;;;;;;;;;;;;;;;5084697;28;1510;-72
2022/10/19 16:00:16;;;;;;;;;;;;;;;;;;5082044;28;1910;-74
2022/10/19 16:02:42;;;;;;;;;;;;;;;;;;5074342;28;1440;-73
2022/10/19 16:05:08;;;;;;;;;;;;;;;;;;5084984;28;1295;-74
2022/10/19 16:07:36;;;;;;;;;;;;;;;;;;5079371;28;1406;-74
2022/10/19 16:10:02;;;;;;;;;;;;;;;;;;5080628;28;1478;-76
2022/10/19 16:12:28;;;;;;;;;;;;;;;;;;5083159;28;1508;-73
2022/10/19 16:14:56;;;;;;;;;;;;;;;;;;5085110;28;1416;-74
2022/10/19 16:17:22;;;;;;;;;;;;;;;;;;5052828;28;1333;-74
2022/10/19 16:19:48;;;;;;;;;;;;;;;;;;5092026;28;1969;-73
2022/10/19 16:22:14;;;;;;;;;;;;;;;;;;5083288;28;1462;-74
2022/10/19 16:24:41;;;;;;;;;;;;;;;;;;5083145;28;1185;-74
2022/10/19 16:27:07;;;;;;;;;;;;;;;;;;5091455;28;1430;-73
2022/10/19 16:29:33;;;;;;;;;;;;;;;;;;5088645;28;1447;-73
2022/10/19 16:32:01;;;;;;;;;;;;;;;;;;5075533;28;1569;-73
2022/10/19 16:34:27;;;;;;;;;;;;;;;;;;5091296;28;1126;-74
2022/10/19 16:36:53;;;;;;;;;;;;;;;;;;5068869;28;1414;-74
2022/10/19 16:39:19;;;;;;;;;;;;;;;;;;5071231;28;1910;-74
2022/10/19 16:41:45;;;;;;;;;;;;;;;;;;5074549;28;1194;-73
2022/10/19 16:44:12;;;;;;;;;;;;;;;;;;5071681;28;1451;-75
2022/10/19 16:46:38;;;;;;;;;;;;;;;;;;5073579;28;1397;-74
2022/10/19 16:49:06;;;;;;;;;;;;;;;;;;5070770;28;1304;-74
2022/10/19 16:51:33;;;;;;;;;;;;;;;;;;5069688;28;1251;-74
2022/10/19 16:54:00;;;;;;;;;;;;;;;;;;5070031;28;1345;-75
2022/10/19 16:56:27;;;;;;;;;;;;;;;;;;5068408;28;1554;-74
2022/10/19 16:58:53;;;;;;;;;;;;;;;;;;5078337;28;1987;-74
2022/10/19 17:01:20;;;;;;;;;;;;;;;;;;5059072;28;1396;-73
2022/10/19 17:03:47;;;;;;;;;;;;;;;;;;5085485;28;1350;-74
2022/10/19 17:06:15;;;;;;;;;;;;;;;;;;5077659;28;1350;-74
2022/10/19 17:08:41;;;;;;;;;;;;;;;;;;5078654;28;1490;-74